createdAt,value
2023-01-11T00:00:35.416Z,7.76
2023-01-11T00:03:05.659Z,7.76
2023-01-11T00:05:36.272Z,7.74
2023-01-11T00:08:04.062Z,7.73
2023-01-11T00:10:30.042Z,7.72
2023-01-11T00:12:56.096Z,7.72
2023-01-11T00:15:22.005Z,7.74
2023-01-11T00:17:47.919Z,7.74
2023-01-11T00:20:14.655Z,7.73
2023-01-11T00:22:40.553Z,7.70
2023-01-11T00:25:06.733Z,7.66
2023-01-11T00:27:32.702Z,7.62
2023-01-11T00:29:58.641Z,7.57
2023-01-11T00:32:26.487Z,7.52
2023-01-11T00:34:53.316Z,7.52
2023-01-11T00:37:20.112Z,7.54
2023-01-11T00:39:46.035Z,7.57
2023-01-11T00:42:31.852Z,7.60
2023-01-11T00:45:16.305Z,7.62
2023-01-11T00:47:57.229Z,7.65
2023-01-11T00:50:24.678Z,7.70
2023-01-11T00:52:50.788Z,7.73
2023-01-11T00:55:16.890Z,7.73
2023-01-11T00:57:42.885Z,7.77
2023-01-11T01:00:10.256Z,7.80
2023-01-11T01:02:36.374Z,7.82
2023-01-11T01:05:02.360Z,7.82
2023-01-11T01:07:28.297Z,7.82
2023-01-11T01:09:54.208Z,7.80
2023-01-11T01:12:46.493Z,7.69
2023-01-11T01:15:12.456Z,7.52
2023-01-11T01:17:39.015Z,7.36
2023-01-11T01:20:05.614Z,7.30
2023-01-11T01:22:31.556Z,7.26
2023-01-11T01:24:57.435Z,7.25
2023-01-11T01:27:23.349Z,7.23
2023-01-11T01:29:49.361Z,7.20
2023-01-11T01:32:15.256Z,7.20
2023-01-11T01:34:41.210Z,7.18
2023-01-11T01:37:09.323Z,7.18
2023-01-11T01:39:35.300Z,7.18
2023-01-11T01:42:01.438Z,7.18
2023-01-11T01:44:52.417Z,7.17
2023-01-11T01:47:24.116Z,7.16
2023-01-11T01:49:50.413Z,7.15
2023-01-11T01:52:16.737Z,7.14
2023-01-11T01:54:46.399Z,7.14
2023-01-11T01:57:19.184Z,7.14
2023-01-11T01:59:50.931Z,7.13
2023-01-11T02:02:23.412Z,7.14
2023-01-11T02:04:50.664Z,7.14
2023-01-11T02:07:26.037Z,7.16
2023-01-11T02:10:17.205Z,7.18
2023-01-11T02:12:51.044Z,7.21
2023-01-11T02:15:19.596Z,7.23
2023-01-11T02:17:45.605Z,7.25
2023-01-11T02:20:31.623Z,7.26
2023-01-11T02:23:35.549Z,7.17
2023-01-11T02:26:39.205Z,7.06
2023-01-11T02:29:18.484Z,7.03
2023-01-11T02:32:21.035Z,7.03
2023-01-11T02:34:51.580Z,7.01
2023-01-11T02:37:33.887Z,6.97
2023-01-11T02:40:19.846Z,6.91
2023-01-11T02:43:11.328Z,6.89
2023-01-11T02:46:04.345Z,6.90
2023-01-11T02:48:45.735Z,6.91
2023-01-11T02:51:17.188Z,6.94
2023-01-11T02:53:48.435Z,6.96
2023-01-11T02:56:25.197Z,6.97
2023-01-11T02:58:54.494Z,6.94
2023-01-11T03:01:22.003Z,6.87
2023-01-11T03:03:49.493Z,6.74
2023-01-11T03:06:23.438Z,6.66
2023-01-11T03:09:11.074Z,6.62
2023-01-11T03:12:17.743Z,6.61
2023-01-11T03:14:49.609Z,6.65
2023-01-11T03:17:40.467Z,6.69
2023-01-11T03:20:21.144Z,6.72
2023-01-11T03:23:04.251Z,6.73
2023-01-11T03:25:55.029Z,6.76
2023-01-11T03:28:20.932Z,6.72
2023-01-11T03:30:58.990Z,6.67
2023-01-11T03:33:37.406Z,6.61
2023-01-11T03:36:28.372Z,6.56
2023-01-11T03:39:16.738Z,6.53
2023-01-11T03:41:43.895Z,6.50
2023-01-11T03:44:14.298Z,6.46
2023-01-11T03:46:57.274Z,6.42
2023-01-11T03:49:46.963Z,6.38
2023-01-11T03:52:15.593Z,6.34
2023-01-11T03:54:44.799Z,6.34
2023-01-11T03:57:14.173Z,6.37
2023-01-11T03:59:40.726Z,6.39
2023-01-11T04:02:20.070Z,6.41
2023-01-11T04:04:46.089Z,6.42
2023-01-11T04:07:12.743Z,6.43
2023-01-11T04:09:38.865Z,6.44
2023-01-11T04:12:05.305Z,6.44
2023-01-11T04:14:31.417Z,6.44
2023-01-11T04:16:57.330Z,6.43
2023-01-11T04:19:23.282Z,6.41
2023-01-11T04:21:49.196Z,6.39
2023-01-11T04:24:15.246Z,6.36
2023-01-11T04:26:41.209Z,6.32
2023-01-11T04:29:07.113Z,6.30
2023-01-11T04:31:33.071Z,6.29
2023-01-11T04:33:59.144Z,6.26
2023-01-11T04:36:25.807Z,6.23
2023-01-11T04:38:51.800Z,6.23
2023-01-11T04:41:36.307Z,6.23
2023-01-11T04:44:02.295Z,6.21
2023-01-11T04:46:28.209Z,6.21
2023-01-11T04:48:55.700Z,6.23
2023-01-11T04:51:21.838Z,6.23
2023-01-11T04:53:48.575Z,6.23
2023-01-11T04:56:15.536Z,6.25
2023-01-11T04:58:41.858Z,6.26
2023-01-11T05:01:15.140Z,6.30
2023-01-11T05:03:41.331Z,6.33
2023-01-11T05:06:07.817Z,6.35
2023-01-11T05:08:33.868Z,6.36
2023-01-11T05:11:02.968Z,6.35
2023-01-11T05:13:41.179Z,6.35
2023-01-11T05:16:11.487Z,6.36
2023-01-11T05:18:42.311Z,6.37
2023-01-11T05:21:11.524Z,6.38
2023-01-11T05:23:37.676Z,6.38
2023-01-11T05:26:09.203Z,6.39
2023-01-11T05:28:35.526Z,6.40
2023-01-11T05:31:02.175Z,6.40
2023-01-11T05:33:28.913Z,6.40
2023-01-11T05:36:04.178Z,6.40
2023-01-11T05:38:30.495Z,6.40
2023-01-11T05:41:02.336Z,6.38
2023-01-11T05:43:29.384Z,6.40
2023-01-11T05:45:57.032Z,6.41
2023-01-11T05:48:23.409Z,6.42
2023-01-11T05:50:50.917Z,6.41
2023-01-11T05:53:17.502Z,6.42
2023-01-11T05:55:57.842Z,6.41
2023-01-11T05:58:26.070Z,6.41
2023-01-11T06:00:55.249Z,6.41
2023-01-11T06:03:23.284Z,6.41
2023-01-11T06:05:49.642Z,6.42
2023-01-11T06:08:15.923Z,6.42
2023-01-11T06:10:42.194Z,6.42
2023-01-11T06:13:26.931Z,6.41
2023-01-11T06:15:53.651Z,6.40
2023-01-11T06:18:19.978Z,6.39
2023-01-11T06:20:53.800Z,6.39
2023-01-11T06:23:21.256Z,6.38
2023-01-11T06:25:47.782Z,6.38
2023-01-11T06:28:14.664Z,6.36
2023-01-11T06:30:40.963Z,6.36
2023-01-11T06:33:07.994Z,6.36
2023-01-11T06:35:38.730Z,6.35
2023-01-11T06:38:06.146Z,6.33
2023-01-11T06:40:32.162Z,6.33
2023-01-11T06:42:58.115Z,6.33
2023-01-11T06:45:24.032Z,6.32
2023-01-11T06:47:50.004Z,6.30
2023-01-11T06:50:16.665Z,6.27
2023-01-11T06:52:42.740Z,6.26
2023-01-11T06:55:09.094Z,6.25
2023-01-11T06:57:34.992Z,6.24
2023-01-11T07:00:01.079Z,6.24
2023-01-11T07:02:27.064Z,6.23
2023-01-11T07:04:53.090Z,6.21
2023-01-11T07:07:19.456Z,6.22
2023-01-11T07:09:46.887Z,6.21
2023-01-11T07:12:12.828Z,6.22
2023-01-11T07:14:38.804Z,6.25
2023-01-11T07:17:04.792Z,6.26
2023-01-11T07:19:30.761Z,6.28
2023-01-11T07:21:58.266Z,6.30
2023-01-11T07:24:24.875Z,6.31
2023-01-11T07:26:51.963Z,6.32
2023-01-11T07:29:17.976Z,6.33
2023-01-11T07:31:45.722Z,6.37
2023-01-11T07:34:11.713Z,6.41
2023-01-11T07:36:38.981Z,6.46
2023-01-11T07:39:06.059Z,6.53
2023-01-11T07:41:50.850Z,6.60
2023-01-11T07:44:16.995Z,6.66
2023-01-11T07:46:43.095Z,6.74
2023-01-11T07:49:09.233Z,6.80
2023-01-11T07:51:35.241Z,6.87
2023-01-11T07:54:03.306Z,6.92
2023-01-11T07:56:29.988Z,7.00
2023-01-11T07:58:56.415Z,7.06
2023-01-11T08:01:24.132Z,7.12
2023-01-11T08:03:50.551Z,7.20
2023-01-11T08:06:16.779Z,7.26
2023-01-11T08:08:43.907Z,7.33
2023-01-11T08:11:30.380Z,7.37
2023-01-11T08:14:15.251Z,7.44
2023-01-11T08:16:41.280Z,7.48
2023-01-11T08:19:07.255Z,7.51
2023-01-11T08:21:33.292Z,7.52
2023-01-11T08:23:59.343Z,7.47
2023-01-11T08:26:26.896Z,7.34
2023-01-11T08:28:53.601Z,7.18
2023-01-11T08:31:20.424Z,7.08
2023-01-11T08:33:48.433Z,7.06
2023-01-11T08:36:14.622Z,7.16
2023-01-11T08:38:40.899Z,7.24
2023-01-11T08:41:10.049Z,7.31
2023-01-11T08:43:42.640Z,7.43
2023-01-11T08:46:09.250Z,7.59
2023-01-11T08:48:35.750Z,7.69
2023-01-11T08:51:02.207Z,7.76
2023-01-11T08:53:28.154Z,7.87
2023-01-11T08:55:54.167Z,7.99
2023-01-11T08:58:21.597Z,8.07
2023-01-11T09:00:47.800Z,8.12
2023-01-11T09:03:14.607Z,8.20
2023-01-11T09:05:41.279Z,8.31
2023-01-11T09:08:08.100Z,8.42
2023-01-11T09:10:34.470Z,8.53
2023-01-11T09:13:00.673Z,8.62
2023-01-11T09:15:26.669Z,8.68
2023-01-11T09:17:53.221Z,8.67
2023-01-11T09:20:20.312Z,8.67
2023-01-11T09:22:48.112Z,8.67
2023-01-11T09:25:14.879Z,8.68
2023-01-11T09:27:50.816Z,8.67
2023-01-11T09:30:19.980Z,8.71
2023-01-11T09:32:47.353Z,8.77
2023-01-11T09:35:17.305Z,8.86
2023-01-11T09:37:51.749Z,8.94
2023-01-11T09:40:30.244Z,9.05
2023-01-11T09:43:00.667Z,9.18
2023-01-11T09:45:30.443Z,9.27
2023-01-11T09:48:14.920Z,9.43
2023-01-11T09:50:45.052Z,9.65
2023-01-11T09:53:34.211Z,9.81
2023-01-11T09:56:04.551Z,9.97
2023-01-11T09:58:50.121Z,10.07
2023-01-11T10:01:19.032Z,10.05
2023-01-11T10:03:51.053Z,10.04
2023-01-11T10:06:29.280Z,10.04
2023-01-11T10:18:22.884Z,10.23
2023-01-11T10:18:31.913Z,10.40
2023-01-11T10:21:06.323Z,10.53
2023-01-11T10:23:46.770Z,10.65
2023-01-11T10:26:26.538Z,10.81
2023-01-11T10:29:18.116Z,10.95
2023-01-11T10:32:01.434Z,11.04
2023-01-11T10:34:59.022Z,11.12
2023-01-11T10:37:47.414Z,11.19
2023-01-11T10:40:30.258Z,11.21
2023-01-11T10:43:03.102Z,11.22
2023-01-11T10:45:49.740Z,11.22
2023-01-11T10:48:36.559Z,11.18
2023-01-11T10:51:02.447Z,11.18
2023-01-11T10:53:54.332Z,11.16
2023-01-11T10:56:35.155Z,11.11
2023-01-11T10:59:27.348Z,11.10
2023-01-11T11:02:31.148Z,11.09
2023-01-11T11:05:50.360Z,11.16
2023-01-11T11:08:26.359Z,11.29
2023-01-11T11:11:00.975Z,11.43
2023-01-11T11:13:36.829Z,11.51
2023-01-11T11:16:26.711Z,11.55
2023-01-11T11:18:57.635Z,11.60
2023-01-11T11:21:29.834Z,11.68
2023-01-11T11:24:01.722Z,11.74
2023-01-11T11:26:36.875Z,11.84
2023-01-11T11:29:18.639Z,11.91
2023-01-11T11:31:46.377Z,11.96
2023-01-11T11:34:16.138Z,11.97
2023-01-11T11:36:44.970Z,11.95
2023-01-11T11:39:17.939Z,11.97
2023-01-11T11:41:47.139Z,12.00
2023-01-11T11:44:24.797Z,12.01
2023-01-11T11:47:01.148Z,11.99
2023-01-11T11:49:29.644Z,12.00
2023-01-11T11:51:57.881Z,11.99
2023-01-11T11:54:28.864Z,12.06
2023-01-11T11:56:58.251Z,12.02
2023-01-11T11:59:29.104Z,12.00
2023-01-11T12:02:04.400Z,12.05
2023-01-11T12:04:48.504Z,12.07
2023-01-11T12:07:22.739Z,12.10
2023-01-11T12:10:12.990Z,12.20
2023-01-11T12:13:02.453Z,12.35
2023-01-11T12:15:30.736Z,12.45
2023-01-11T12:18:26.811Z,12.49
2023-01-11T12:20:54.039Z,12.43
2023-01-11T12:23:23.648Z,12.37
2023-01-11T12:25:55.768Z,12.31
2023-01-11T12:28:37.297Z,12.30
2023-01-11T12:31:31.285Z,12.28
2023-01-11T12:34:16.300Z,12.27
2023-01-11T12:37:04.357Z,12.31
2023-01-11T12:39:56.623Z,12.36
2023-01-11T12:42:37.647Z,12.41
2023-01-11T12:45:16.194Z,12.45
2023-01-11T12:48:03.552Z,12.41
2023-01-11T12:50:46.911Z,12.42
2023-01-11T12:53:18.960Z,12.48
2023-01-11T12:55:58.385Z,12.48
2023-01-11T12:58:43.112Z,12.50
2023-01-11T13:01:18.538Z,12.47
2023-01-11T13:04:22.395Z,12.48
2023-01-11T13:07:03.463Z,12.51
2023-01-11T13:09:41.630Z,12.53
2023-01-11T13:12:28.901Z,12.49
2023-01-11T13:15:21.344Z,12.48
2023-01-11T13:17:54.902Z,12.44
2023-01-11T13:20:40.509Z,12.37
2023-01-11T13:23:32.525Z,12.31
2023-01-11T13:26:12.214Z,12.26
2023-01-11T13:28:42.821Z,12.19
2023-01-11T13:31:13.012Z,12.11
2023-01-11T13:33:44.719Z,12.07
2023-01-11T13:36:23.630Z,12.01
2023-01-11T13:39:13.527Z,11.99
2023-01-11T13:41:48.368Z,11.98
2023-01-11T13:44:47.247Z,11.95
2023-01-11T13:47:23.550Z,11.95
2023-01-11T13:50:09.816Z,11.92
2023-01-11T13:52:58.793Z,11.89
2023-01-11T13:55:51.001Z,11.85
2023-01-11T13:58:30.744Z,11.81
2023-01-11T14:01:02.886Z,11.79
2023-01-11T14:03:41.278Z,11.74
2023-01-11T14:06:33.994Z,11.67
2023-01-11T14:09:26.409Z,11.59
2023-01-11T14:12:22.720Z,11.56
2023-01-11T14:15:14.400Z,11.53
2023-01-11T14:18:09.657Z,11.49
2023-01-11T14:20:54.312Z,11.44
2023-01-11T14:23:25.758Z,11.38
2023-01-11T14:26:19.503Z,11.31
2023-01-11T14:28:51.550Z,11.24
2023-01-11T14:31:37.841Z,11.20
2023-01-11T14:34:28.245Z,11.12
2023-01-11T14:37:15.406Z,11.09
2023-01-11T14:40:10.533Z,11.05
2023-01-11T14:43:07.139Z,10.97
2023-01-11T14:45:52.118Z,10.88
2023-01-11T14:48:46.336Z,10.75
2023-01-11T14:51:35.923Z,10.63
2023-01-11T14:54:22.594Z,10.59
2023-01-11T14:56:55.315Z,10.60
2023-01-11T14:59:28.353Z,10.58
2023-01-11T15:02:03.424Z,10.56
2023-01-11T15:04:59.097Z,10.52
2023-01-11T15:07:28.153Z,10.48
2023-01-11T15:09:55.595Z,10.42
2023-01-11T15:12:23.116Z,10.33
2023-01-11T15:14:55.998Z,10.23
2023-01-11T15:17:44.317Z,10.10
2023-01-11T15:20:16.265Z,10.00
2023-01-11T15:22:43.519Z,9.95
2023-01-11T15:25:22.270Z,9.89
2023-01-11T15:27:48.935Z,9.83
2023-01-11T15:30:30.479Z,9.78
2023-01-11T15:33:18.837Z,9.73
2023-01-11T15:35:57.159Z,9.65
2023-01-11T15:38:26.310Z,9.56
2023-01-11T15:40:55.782Z,9.48
2023-01-11T15:43:42.563Z,9.39
2023-01-11T15:46:36.301Z,9.32
2023-01-11T15:49:32.839Z,9.23
2023-01-11T15:52:19.344Z,9.14
2023-01-11T15:55:05.586Z,9.06
2023-01-11T15:57:56.528Z,8.98
2023-01-11T16:01:00.677Z,8.91
2023-01-11T16:03:29.438Z,8.85
2023-01-11T16:06:23.613Z,8.77
2023-01-11T16:09:02.338Z,8.72
2023-01-11T16:11:43.704Z,8.67
2023-01-11T16:14:18.686Z,8.61
2023-01-11T16:16:51.938Z,8.54
2023-01-11T16:19:21.025Z,8.49
2023-01-11T16:21:51.079Z,8.43
2023-01-11T16:24:19.867Z,8.39
2023-01-11T16:26:54.615Z,8.35
2023-01-11T16:29:26.524Z,8.32
2023-01-11T16:32:03.906Z,8.28
2023-01-11T16:34:39.325Z,8.26
2023-01-11T16:37:24.034Z,8.23
2023-01-11T16:39:54.661Z,8.21
2023-01-11T16:42:21.408Z,8.20
2023-01-11T16:44:53.081Z,8.21
2023-01-11T16:47:20.739Z,8.23
2023-01-11T16:49:51.569Z,8.23
2023-01-11T16:52:26.445Z,8.23
2023-01-11T16:54:54.954Z,8.20
2023-01-11T16:57:27.494Z,8.16
2023-01-11T17:00:03.307Z,8.10
2023-01-11T17:02:34.934Z,8.06
2023-01-11T17:05:01.035Z,8.01
2023-01-11T17:07:29.209Z,7.98
2023-01-11T17:10:24.707Z,7.94
2023-01-11T17:13:44.815Z,7.90
2023-01-11T17:16:15.070Z,7.86
2023-01-11T17:18:43.297Z,7.84
2023-01-11T17:21:32.232Z,7.82
2023-01-11T17:24:01.511Z,7.81
2023-01-11T17:26:31.363Z,7.81
2023-01-11T17:28:59.185Z,7.83
2023-01-11T17:31:31.422Z,7.86
2023-01-11T17:34:14.629Z,7.89
2023-01-11T17:36:42.756Z,7.93
2023-01-11T17:39:24.209Z,7.95
2023-01-11T17:42:08.809Z,7.99
2023-01-11T17:44:54.392Z,8.02
2023-01-11T17:47:23.047Z,8.07
2023-01-11T17:49:49.875Z,8.10
2023-01-11T17:52:24.349Z,8.14
2023-01-11T17:55:16.977Z,8.15
2023-01-11T17:57:43.869Z,8.16
2023-01-11T18:00:26.478Z,8.16
2023-01-11T18:02:53.600Z,8.16
2023-01-11T18:05:25.174Z,8.17
2023-01-11T18:07:59.459Z,8.17
2023-01-11T18:10:28.453Z,8.18
2023-01-11T18:12:57.222Z,8.19
2023-01-11T18:15:27.812Z,8.22
2023-01-11T18:17:56.389Z,8.24
2023-01-11T18:20:31.991Z,8.25
2023-01-11T18:23:04.835Z,8.26
2023-01-11T18:25:36.653Z,8.27
2023-01-11T18:28:11.564Z,8.28
2023-01-11T18:30:46.943Z,8.30
2023-01-11T18:33:22.127Z,8.32
2023-01-11T18:35:51.281Z,8.33
2023-01-11T18:38:23.040Z,8.37
2023-01-11T18:40:50.980Z,8.38
2023-01-11T18:43:23.248Z,8.38
2023-01-11T18:45:49.323Z,8.39
2023-01-11T18:48:15.687Z,8.38
2023-01-11T18:50:44.389Z,8.36
2023-01-11T18:53:11.840Z,8.34
2023-01-11T18:55:38.100Z,8.32
2023-01-11T18:58:04.811Z,8.30
2023-01-11T19:00:30.969Z,8.29
2023-01-11T19:02:57.062Z,8.29
2023-01-11T19:05:23.356Z,8.29
2023-01-11T19:07:49.573Z,8.27
2023-01-11T19:10:21.162Z,8.19
2023-01-11T19:12:47.433Z,8.05
2023-01-11T19:15:14.788Z,7.99
2023-01-11T19:17:40.793Z,7.96
2023-01-11T19:20:08.529Z,7.90
2023-01-11T19:22:36.343Z,7.87
2023-01-11T19:25:03.006Z,7.88
2023-01-11T19:27:29.016Z,7.92
2023-01-11T19:29:56.947Z,7.95
2023-01-11T19:32:24.850Z,7.98
2023-01-11T19:34:59.017Z,8.03
2023-01-11T19:37:26.525Z,8.10
2023-01-11T19:39:52.702Z,8.14
2023-01-11T19:42:18.922Z,8.15
2023-01-11T19:44:44.885Z,8.17
2023-01-11T19:47:14.857Z,8.19
2023-01-11T19:49:42.116Z,8.19
2023-01-11T19:52:13.715Z,8.20
2023-01-11T19:54:42.358Z,8.21
2023-01-11T19:57:14.419Z,8.21
2023-01-11T19:59:41.646Z,8.20
2023-01-11T20:02:13.385Z,8.19
2023-01-11T20:04:40.328Z,8.19
2023-01-11T20:07:07.343Z,8.19
2023-01-11T20:09:36.795Z,8.21
2023-01-11T20:12:04.922Z,8.23
2023-01-11T20:14:30.983Z,8.24
2023-01-11T20:16:57.031Z,8.27
2023-01-11T20:19:23.116Z,8.29
2023-01-11T20:21:49.149Z,8.29
2023-01-11T20:24:15.470Z,8.30
2023-01-11T20:26:42.566Z,8.31
2023-01-11T20:29:08.596Z,8.31
2023-01-11T20:31:34.960Z,8.31
2023-01-11T20:34:10.160Z,8.33
2023-01-11T20:36:36.965Z,8.35
2023-01-11T20:39:03.952Z,8.36
2023-01-11T20:41:48.145Z,8.37
2023-01-11T20:44:27.832Z,8.40
2023-01-11T20:46:58.053Z,8.42
2023-01-11T20:49:28.200Z,8.45
2023-01-11T20:51:55.781Z,8.48
2023-01-11T20:54:21.667Z,8.49
2023-01-11T20:56:48.694Z,8.49
2023-01-11T20:59:18.522Z,8.47
2023-01-11T21:01:46.357Z,8.47
2023-01-11T21:04:12.758Z,8.40
2023-01-11T21:06:42.032Z,8.30
2023-01-11T21:09:09.427Z,8.24
2023-01-11T21:11:36.379Z,8.26
2023-01-11T21:14:03.598Z,8.26
2023-01-11T21:16:30.781Z,8.25
2023-01-11T21:18:58.891Z,8.15
2023-01-11T21:21:26.007Z,8.02
2023-01-11T21:23:57.742Z,7.95
2023-01-11T21:26:25.050Z,7.89
2023-01-11T21:28:53.791Z,7.87
2023-01-11T21:31:22.689Z,7.86
2023-01-11T21:33:49.548Z,7.87
2023-01-11T21:36:18.083Z,7.88
2023-01-11T21:38:44.220Z,7.86
2023-01-11T21:41:15.503Z,7.84
2023-01-11T21:43:42.150Z,7.84
2023-01-11T21:46:09.402Z,7.85
2023-01-11T21:48:35.655Z,7.84
2023-01-11T21:51:02.330Z,7.86
2023-01-11T21:53:32.460Z,7.88
2023-01-11T21:56:06.812Z,7.91
2023-01-11T21:58:34.369Z,7.94
2023-01-11T22:01:09.184Z,7.98
2023-01-11T22:03:35.388Z,7.96
2023-01-11T22:06:03.366Z,7.89
2023-01-11T22:08:29.728Z,7.82
2023-01-11T22:11:00.449Z,7.76
2023-01-11T22:13:37.036Z,7.72
2023-01-11T22:16:12.953Z,7.64
2023-01-11T22:18:42.504Z,7.59
2023-01-11T22:21:14.597Z,7.53
2023-01-11T22:23:41.176Z,7.49
2023-01-11T22:26:13.618Z,7.42
2023-01-11T22:28:59.306Z,7.32
2023-01-11T22:31:27.044Z,7.22
2023-01-11T22:33:54.289Z,7.20
2023-01-11T22:36:22.461Z,7.23
2023-01-11T22:38:48.559Z,7.27
2023-01-11T22:41:14.668Z,7.31
2023-01-11T22:43:42.549Z,7.35
2023-01-11T22:46:13.215Z,7.39
2023-01-11T22:48:39.325Z,7.41
2023-01-11T22:51:06.349Z,7.43
2023-01-11T22:53:40.216Z,7.42
2023-01-11T22:56:07.084Z,7.38
2023-01-11T22:58:35.230Z,7.37
2023-01-11T23:01:34.991Z,7.38
2023-01-11T23:04:01.653Z,7.39
2023-01-11T23:06:36.386Z,7.40
2023-01-11T23:09:04.297Z,7.39
2023-01-11T23:11:53.773Z,7.39
2023-01-11T23:14:20.089Z,7.41
2023-01-11T23:16:47.566Z,7.42
2023-01-11T23:19:16.068Z,7.43
2023-01-11T23:21:44.190Z,7.42
2023-01-11T23:24:12.522Z,7.38
2023-01-11T23:26:38.613Z,7.37
2023-01-11T23:29:05.139Z,7.39
2023-01-11T23:31:31.283Z,7.41
2023-01-11T23:33:59.846Z,7.44
2023-01-11T23:36:31.615Z,7.47
2023-01-11T23:38:57.901Z,7.50
2023-01-11T23:41:43.062Z,7.52
2023-01-11T23:44:11.981Z,7.56
2023-01-11T23:46:57.503Z,7.59
2023-01-11T23:49:26.597Z,7.61
2023-01-11T23:51:54.993Z,7.65
2023-01-11T23:54:22.171Z,7.67
2023-01-11T23:56:48.515Z,7.68
2023-01-11T23:59:14.517Z,7.71
